Time;durP1;ratioP1;P1;durP2;ratioP2;P2;SDS_P1;SDS_P2;PMS_P1;PMS_P2;Temp;Humidity;BMP_temperature;BMP_pressure;BME280_temperature;BME280_humidity;BME280_pressure;Samples;Min_cycle;Max_cycle;Signal;HPM_P1;HPM_P2
2022/09/16 00:02:05;;;;;;;;;;;;;;;;;;5062107;28;20366;-19
2022/09/16 00:04:32;;;;;;;;;;;;;;;;;;5079472;28;19987;-20
2022/09/16 00:06:59;;;;;;;;;;;;;;;;;;5079909;28;19912;-19
2022/09/16 00:09:25;;;;;;;;;;;;;;;;;;5079785;28;19920;-18
2022/09/16 00:11:53;;;;;;;;;;;;;;;;;;5079795;28;19912;-18
2022/09/16 00:14:21;;;;;;;;;;;;;;;;;;5062257;28;19924;-18
2022/09/16 00:16:49;;;;;;;;;;;;;;;;;;5079848;28;19912;-19
2022/09/16 00:19:15;;;;;;;;;;;;;;;;;;5079740;28;19966;-19
2022/09/16 00:21:42;;;;;;;;;;;;;;;;;;5079333;28;20315;-18
2022/09/16 00:24:12;;;;;;;;;;;;;;;;;;5079596;28;19912;-19
2022/09/16 00:26:40;;;;;;;;;;;;;;;;;;5079194;28;20271;-19
2022/09/16 00:29:06;;;;;;;;;;;;;;;;;;5079474;28;19912;-20
2022/09/16 00:31:33;;;;;;;;;;;;;;;;;;5061648;28;19940;-18
2022/09/16 00:34:00;;;;;;;;;;;;;;;;;;5078001;28;20296;-18
2022/09/16 00:36:27;;;;;;;;;;;;;;;;;;5062176;28;19924;-19
2022/09/16 00:38:54;;;;;;;;;;;;;;;;;;5079897;28;19908;-19
2022/09/16 00:41:21;;;;;;;;;;;;;;;;;;5079782;28;19923;-18
2022/09/16 00:43:48;;;;;;;;;;;;;;;;;;5079364;28;19908;-18
2022/09/16 00:46:16;;;;;;;;;;;;;;;;;;5079699;28;19924;-19
2022/09/16 00:48:42;;;;;;;;;;;;;;;;;;5079201;28;19940;-19
2022/09/16 00:51:10;;;;;;;;;;;;;;;;;;5079241;28;20263;-20
2022/09/16 00:53:37;;;;;;;;;;;;;;;;;;5079684;28;19912;-18
2022/09/16 00:56:04;;;;;;;;;;;;;;;;;;5061649;28;19917;-18
2022/09/16 00:58:31;;;;;;;;;;;;;;;;;;5061309;28;19999;-19
2022/09/16 01:00:58;;;;;;;;;;;;;;;;;;5079121;28;20231;-18
2022/09/16 01:03:25;;;;;;;;;;;;;;;;;;5060758;28;19952;-18
2022/09/16 01:05:52;;;;;;;;;;;;;;;;;;5079309;28;19916;-18
2022/09/16 01:08:19;;;;;;;;;;;;;;;;;;5079345;28;19943;-18
2022/09/16 01:10:45;;;;;;;;;;;;;;;;;;5078863;28;19935;-18
2022/09/16 01:13:12;;;;;;;;;;;;;;;;;;5079064;28;19909;-18
2022/09/16 01:15:39;;;;;;;;;;;;;;;;;;5079173;28;19923;-18
2022/09/16 01:18:06;;;;;;;;;;;;;;;;;;5061749;28;19912;-19
2022/09/16 01:20:33;;;;;;;;;;;;;;;;;;5061209;28;19923;-18
2022/09/16 01:23:00;;;;;;;;;;;;;;;;;;5079054;28;19912;-19
2022/09/16 01:25:27;;;;;;;;;;;;;;;;;;5078461;28;19923;-19
2022/09/16 01:27:54;;;;;;;;;;;;;;;;;;5079318;28;19978;-19
2022/09/16 01:30:21;;;;;;;;;;;;;;;;;;5078485;28;19913;-19
2022/09/16 01:32:49;;;;;;;;;;;;;;;;;;5078768;28;19947;-19
2022/09/16 01:35:16;;;;;;;;;;;;;;;;;;5078509;28;20065;-19
2022/09/16 01:37:43;;;;;;;;;;;;;;;;;;5060712;28;19916;-19
2022/09/16 01:40:12;;;;;;;;;;;;;;;;;;5078201;28;19912;-19
2022/09/16 01:42:39;;;;;;;;;;;;;;;;;;5078642;28;19908;-19
2022/09/16 01:45:06;;;;;;;;;;;;;;;;;;5078085;28;19923;-19
2022/09/16 01:47:33;;;;;;;;;;;;;;;;;;5060916;28;20352;-19
2022/09/16 01:50:00;;;;;;;;;;;;;;;;;;5078074;28;19913;-19
2022/09/16 01:52:28;;;;;;;;;;;;;;;;;;5078104;28;19935;-18
2022/09/16 01:54:55;;;;;;;;;;;;;;;;;;5078912;28;19912;-19
2022/09/16 01:57:23;;;;;;;;;;;;;;;;;;5078511;28;19923;-19
2022/09/16 01:59:50;;;;;;;;;;;;;;;;;;5078296;28;19932;-19
2022/09/16 02:02:17;;;;;;;;;;;;;;;;;;5060456;28;19973;-19
2022/09/16 02:04:44;;;;;;;;;;;;;;;;;;5077635;28;19939;-18
2022/09/16 02:07:11;;;;;;;;;;;;;;;;;;5060222;28;20290;-18
2022/09/16 02:09:39;;;;;;;;;;;;;;;;;;5060378;28;19918;-19
2022/09/16 02:12:07;;;;;;;;;;;;;;;;;;5077535;28;19919;-18
2022/09/16 02:14:34;;;;;;;;;;;;;;;;;;5077858;28;19982;-18
2022/09/16 02:17:02;;;;;;;;;;;;;;;;;;5059766;28;19912;-18
2022/09/16 02:19:28;;;;;;;;;;;;;;;;;;5077489;28;19912;-19
2022/09/16 02:21:56;;;;;;;;;;;;;;;;;;5077437;28;19913;-18
2022/09/16 02:24:23;;;;;;;;;;;;;;;;;;5077002;28;19916;-19
2022/09/16 02:26:50;;;;;;;;;;;;;;;;;;5078064;28;19912;-19
2022/09/16 02:29:17;;;;;;;;;;;;;;;;;;5077274;28;19931;-19
2022/09/16 02:31:44;;;;;;;;;;;;;;;;;;5078114;28;19912;-19
2022/09/16 02:34:11;;;;;;;;;;;;;;;;;;5077389;28;19912;-19
2022/09/16 02:36:38;;;;;;;;;;;;;;;;;;5077144;28;19912;-19
2022/09/16 02:39:07;;;;;;;;;;;;;;;;;;5077181;28;20232;-19
2022/09/16 02:41:33;;;;;;;;;;;;;;;;;;5059851;28;19912;-18
2022/09/16 02:44:01;;;;;;;;;;;;;;;;;;5076819;28;20291;-19
2022/09/16 02:46:29;;;;;;;;;;;;;;;;;;5077346;28;20029;-18
2022/09/16 02:48:56;;;;;;;;;;;;;;;;;;5077139;28;19920;-18
2022/09/16 02:51:22;;;;;;;;;;;;;;;;;;5076526;28;20259;-21
2022/09/16 02:53:49;;;;;;;;;;;;;;;;;;5076880;28;19915;-20
2022/09/16 02:56:16;;;;;;;;;;;;;;;;;;5077055;28;20258;-19
2022/09/16 02:58:43;;;;;;;;;;;;;;;;;;5059071;28;19912;-19
2022/09/16 03:01:10;;;;;;;;;;;;;;;;;;5077324;28;19913;-18
2022/09/16 03:03:37;;;;;;;;;;;;;;;;;;5076669;28;20258;-19
2022/09/16 03:06:04;;;;;;;;;;;;;;;;;;5059509;28;20042;-19
2022/09/16 03:08:30;;;;;;;;;;;;;;;;;;5059466;28;19958;-19
2022/09/16 03:11:00;;;;;;;;;;;;;;;;;;5076585;28;19912;-19
2022/09/16 03:13:27;;;;;;;;;;;;;;;;;;5058906;28;19934;-19
2022/09/16 03:15:54;;;;;;;;;;;;;;;;;;5077682;28;20026;-19
2022/09/16 03:18:20;;;;;;;;;;;;;;;;;;5076878;28;19918;-19
2022/09/16 03:20:48;;;;;;;;;;;;;;;;;;5076534;28;19908;-18
2022/09/16 03:23:15;;;;;;;;;;;;;;;;;;5076438;28;19955;-19
2022/09/16 03:25:42;;;;;;;;;;;;;;;;;;5076813;28;20323;-18
2022/09/16 03:28:10;;;;;;;;;;;;;;;;;;5076671;28;20255;-19
2022/09/16 03:30:38;;;;;;;;;;;;;;;;;;5076915;28;19958;-19
2022/09/16 03:33:05;;;;;;;;;;;;;;;;;;5077115;28;19916;-18
2022/09/16 03:35:32;;;;;;;;;;;;;;;;;;5076636;28;19936;-19
2022/09/16 03:37:59;;;;;;;;;;;;;;;;;;5076675;28;20305;-20
2022/09/16 03:40:28;;;;;;;;;;;;;;;;;;5077277;28;19917;-19
2022/09/16 03:42:56;;;;;;;;;;;;;;;;;;5076747;28;20231;-18
2022/09/16 03:45:23;;;;;;;;;;;;;;;;;;5077028;28;19913;-18
2022/09/16 03:47:50;;;;;;;;;;;;;;;;;;5076898;28;20358;-19
2022/09/16 03:50:18;;;;;;;;;;;;;;;;;;5059079;28;19909;-20
2022/09/16 03:52:46;;;;;;;;;;;;;;;;;;5058552;28;20011;-19
2022/09/16 03:55:15;;;;;;;;;;;;;;;;;;5077173;28;20318;-19
2022/09/16 03:57:42;;;;;;;;;;;;;;;;;;5075763;28;19962;-19
2022/09/16 04:00:10;;;;;;;;;;;;;;;;;;5076419;28;20000;-19
2022/09/16 04:02:37;;;;;;;;;;;;;;;;;;5076106;28;19920;-19
2022/09/16 04:05:07;;;;;;;;;;;;;;;;;;5075677;28;19921;-19
2022/09/16 04:07:34;;;;;;;;;;;;;;;;;;5058379;28;19924;-18
2022/09/16 04:10:01;;;;;;;;;;;;;;;;;;5080233;28;19924;-20
2022/09/16 04:12:29;;;;;;;;;;;;;;;;;;5079946;28;19916;-19
2022/09/16 04:14:57;;;;;;;;;;;;;;;;;;5080385;28;20331;-20
2022/09/16 04:17:24;;;;;;;;;;;;;;;;;;5079973;28;20416;-20
2022/09/16 04:19:54;;;;;;;;;;;;;;;;;;5080316;28;19913;-19
2022/09/16 04:22:23;;;;;;;;;;;;;;;;;;5080053;28;20007;-19
2022/09/16 04:24:50;;;;;;;;;;;;;;;;;;5079529;28;20015;-19
2022/09/16 04:27:18;;;;;;;;;;;;;;;;;;5079426;28;19913;-20
2022/09/16 04:29:46;;;;;;;;;;;;;;;;;;5061818;28;19912;-19
2022/09/16 04:32:12;;;;;;;;;;;;;;;;;;5079839;28;19912;-20
2022/09/16 04:34:40;;;;;;;;;;;;;;;;;;5079886;28;19976;-19
2022/09/16 04:37:09;;;;;;;;;;;;;;;;;;5079770;28;19966;-19
2022/09/16 04:39:40;;;;;;;;;;;;;;;;;;5080700;28;20292;-20
2022/09/16 04:42:06;;;;;;;;;;;;;;;;;;5080136;28;19913;-20
2022/09/16 04:44:34;;;;;;;;;;;;;;;;;;5062017;28;19919;-20
2022/09/16 04:47:02;;;;;;;;;;;;;;;;;;5061564;28;20270;-20
2022/09/16 04:49:30;;;;;;;;;;;;;;;;;;5079576;28;19912;-20
2022/09/16 04:51:58;;;;;;;;;;;;;;;;;;5061405;28;20343;-20
2022/09/16 04:54:25;;;;;;;;;;;;;;;;;;5079852;28;19962;-19
2022/09/16 04:56:53;;;;;;;;;;;;;;;;;;5062213;28;20010;-20
2022/09/16 04:59:21;;;;;;;;;;;;;;;;;;5080812;28;19944;-20
2022/09/16 05:01:48;;;;;;;;;;;;;;;;;;5078926;28;19969;-19
2022/09/16 05:04:16;;;;;;;;;;;;;;;;;;5061307;28;19924;-20
2022/09/16 05:06:44;;;;;;;;;;;;;;;;;;5079578;28;20212;-19
2022/09/16 05:09:17;;;;;;;;;;;;;;;;;;5079859;28;19962;-19
2022/09/16 05:11:46;;;;;;;;;;;;;;;;;;5061984;28;19927;-20
2022/09/16 05:14:19;;;;;;;;;;;;;;;;;;5079893;28;19995;-20
2022/09/16 05:19:43;;;;;;;;;;;;;;;;;;5080887;28;19966;-18
2022/09/16 05:22:11;;;;;;;;;;;;;;;;;;5080611;28;19970;-18
2022/09/16 05:24:39;;;;;;;;;;;;;;;;;;5079830;28;19912;-20
2022/09/16 05:27:09;;;;;;;;;;;;;;;;;;5078519;28;19912;-19
2022/09/16 05:29:36;;;;;;;;;;;;;;;;;;5079037;28;19993;-19
2022/09/16 05:32:04;;;;;;;;;;;;;;;;;;5079162;28;19917;-19
2022/09/16 05:34:35;;;;;;;;;;;;;;;;;;5078698;28;19909;-20
2022/09/16 05:37:03;;;;;;;;;;;;;;;;;;5080167;28;19952;-20
2022/09/16 05:39:32;;;;;;;;;;;;;;;;;;5060822;28;19947;-21
2022/09/16 05:42:03;;;;;;;;;;;;;;;;;;5079111;28;19994;-20
2022/09/16 05:44:32;;;;;;;;;;;;;;;;;;5078702;28;20285;-19
2022/09/16 05:47:01;;;;;;;;;;;;;;;;;;5077617;28;19912;-20
2022/09/16 05:52:34;;;;;;;;;;;;;;;;;;5079040;28;19924;-19
2022/09/16 05:55:12;;;;;;;;;;;;;;;;;;5079526;28;20018;-19
2022/09/16 05:57:47;;;;;;;;;;;;;;;;;;5078311;28;19916;-21
2022/09/16 06:00:19;;;;;;;;;;;;;;;;;;5078897;28;19912;-19
2022/09/16 06:05:39;;;;;;;;;;;;;;;;;;5080195;28;19934;-20
2022/09/16 06:10:58;;;;;;;;;;;;;;;;;;5079868;28;19919;-20
2022/09/16 06:13:26;;;;;;;;;;;;;;;;;;5078770;28;19913;-19
2022/09/16 06:15:57;;;;;;;;;;;;;;;;;;5078605;28;19912;-19
2022/09/16 06:18:25;;;;;;;;;;;;;;;;;;5077625;28;19909;-20
2022/09/16 06:20:54;;;;;;;;;;;;;;;;;;5078245;28;19913;-20
2022/09/16 06:23:23;;;;;;;;;;;;;;;;;;5078024;28;20434;-19
2022/09/16 06:25:51;;;;;;;;;;;;;;;;;;5077840;28;20283;-21
2022/09/16 06:28:18;;;;;;;;;;;;;;;;;;5072967;28;19943;-19
2022/09/16 06:30:51;;;;;;;;;;;;;;;;;;5077388;28;19913;-19
2022/09/16 06:33:19;;;;;;;;;;;;;;;;;;5058669;28;20342;-20
2022/09/16 06:35:46;;;;;;;;;;;;;;;;;;5077274;28;19909;-20
2022/09/16 06:38:15;;;;;;;;;;;;;;;;;;5076861;28;20289;-20
2022/09/16 06:40:46;;;;;;;;;;;;;;;;;;5078461;28;19908;-20
2022/09/16 06:43:16;;;;;;;;;;;;;;;;;;5079466;28;19913;-20
2022/09/16 06:45:43;;;;;;;;;;;;;;;;;;5061287;28;19917;-20
2022/09/16 06:48:19;;;;;;;;;;;;;;;;;;5077913;28;19913;-20
2022/09/16 06:50:58;;;;;;;;;;;;;;;;;;5060801;28;19923;-20
2022/09/16 06:53:29;;;;;;;;;;;;;;;;;;5076952;28;20408;-19
2022/09/16 06:56:00;;;;;;;;;;;;;;;;;;5077141;28;19920;-20
2022/09/16 06:58:31;;;;;;;;;;;;;;;;;;5077155;28;20377;-20
2022/09/16 07:01:01;;;;;;;;;;;;;;;;;;5077732;28;19973;-20
2022/09/16 07:03:30;;;;;;;;;;;;;;;;;;5078350;28;20347;-19
2022/09/16 07:06:03;;;;;;;;;;;;;;;;;;5077724;28;19960;-20
2022/09/16 07:08:36;;;;;;;;;;;;;;;;;;5059860;28;20347;-19
2022/09/16 07:11:06;;;;;;;;;;;;;;;;;;5060342;28;20279;-21
2022/09/16 07:13:36;;;;;;;;;;;;;;;;;;5077937;28;20359;-20
2022/09/16 07:16:09;;;;;;;;;;;;;;;;;;5077030;28;19932;-20
2022/09/16 07:18:38;;;;;;;;;;;;;;;;;;5078535;28;19939;-19
2022/09/16 07:21:05;;;;;;;;;;;;;;;;;;5059372;28;19924;-20
2022/09/16 07:23:33;;;;;;;;;;;;;;;;;;5059789;28;19909;-20
2022/09/16 07:26:01;;;;;;;;;;;;;;;;;;5077254;28;19916;-19
2022/09/16 07:28:30;;;;;;;;;;;;;;;;;;5076966;28;19923;-18
2022/09/16 07:33:56;;;;;;;;;;;;;;;;;;5077642;28;19995;-21
2022/09/16 07:36:23;;;;;;;;;;;;;;;;;;5078154;28;19931;-19
2022/09/16 07:38:52;;;;;;;;;;;;;;;;;;5077608;28;19920;-18
2022/09/16 07:41:38;;;;;;;;;;;;;;;;;;5077269;28;20232;-20
2022/09/16 07:46:57;;;;;;;;;;;;;;;;;;5080937;28;19967;-19
2022/09/16 07:49:24;;;;;;;;;;;;;;;;;;5063713;28;20315;-19
2022/09/16 07:51:52;;;;;;;;;;;;;;;;;;5063647;28;19977;-19
2022/09/16 07:54:20;;;;;;;;;;;;;;;;;;5082560;28;19916;-20
2022/09/16 07:56:47;;;;;;;;;;;;;;;;;;5062699;28;19923;-20
2022/09/16 07:59:20;;;;;;;;;;;;;;;;;;5081048;28;19947;-20
2022/09/16 08:01:48;;;;;;;;;;;;;;;;;;5081587;28;19938;-20
2022/09/16 08:04:18;;;;;;;;;;;;;;;;;;5080819;28;20017;-20
2022/09/16 08:06:46;;;;;;;;;;;;;;;;;;5063109;28;19916;-20
2022/09/16 08:09:14;;;;;;;;;;;;;;;;;;5080627;28;20004;-19
2022/09/16 08:11:44;;;;;;;;;;;;;;;;;;5080560;28;19944;-19
2022/09/16 08:14:17;;;;;;;;;;;;;;;;;;5081073;28;19946;-20
2022/09/16 08:16:53;;;;;;;;;;;;;;;;;;5080147;28;20250;-20
2022/09/16 08:19:22;;;;;;;;;;;;;;;;;;5081294;28;19912;-20
2022/09/16 08:21:52;;;;;;;;;;;;;;;;;;5063580;28;20419;-19
2022/09/16 08:27:38;;;;;;;;;;;;;;;;;;5081361;28;19927;-20
2022/09/16 08:30:07;;;;;;;;;;;;;;;;;;5063033;28;19917;-19
2022/09/16 08:32:35;;;;;;;;;;;;;;;;;;5081384;28;19973;-20
2022/09/16 08:35:02;;;;;;;;;;;;;;;;;;5080562;28;19912;-19
2022/09/16 08:37:30;;;;;;;;;;;;;;;;;;5079655;28;20042;-18
2022/09/16 08:39:57;;;;;;;;;;;;;;;;;;5082391;28;19987;-20
2022/09/16 08:42:23;;;;;;;;;;;;;;;;;;5066523;28;19923;-19
2022/09/16 09:10:35;;;;;;;;;;;;;;;;;;4996002;28;19914;-24
2022/09/16 09:24:11;;;;;;;;;;;;;;;;;;4070736;26;19928;-24
2022/09/16 09:26:37;;;;;;;;;;;;;;;;;;5056367;28;19916;-24
2022/09/16 09:29:03;;;;;;;;;;;;;;;;;;5056002;28;20263;-24
2022/09/16 09:31:29;;;;;;;;;;;;;;;;;;5055856;28;19963;-24
2022/09/16 09:33:55;;;;;;;;;;;;;;;;;;5055922;28;19921;-24
2022/09/16 09:36:21;;;;;;;;;;;;;;;;;;5056537;28;19953;-24
2022/09/16 09:38:47;;;;;;;;;;;;;;;;;;5055874;28;19936;-24
2022/09/16 09:41:13;;;;;;;;;;;;;;;;;;5076645;28;19916;-23
2022/09/16 09:43:39;;;;;;;;;;;;;;;;;;5075667;28;20299;-24
2022/09/16 09:46:05;;;;;;;;;;;;;;;;;;5057829;28;19926;-24
2022/09/16 09:48:31;;;;;;;;;;;;;;;;;;5076403;28;19909;-24
2022/09/16 09:50:58;;;;;;;;;;;;;;;;;;5075735;28;19982;-24
2022/09/16 09:53:24;;;;;;;;;;;;;;;;;;5075215;28;19916;-24
2022/09/16 09:55:50;;;;;;;;;;;;;;;;;;5075376;28;20007;-24
2022/09/16 09:58:17;;;;;;;;;;;;;;;;;;5075228;28;19920;-24
2022/09/16 10:00:43;;;;;;;;;;;;;;;;;;5075525;28;19913;-31
2022/09/16 10:03:09;;;;;;;;;;;;;;;;;;5075248;28;19966;-24
2022/09/16 10:05:35;;;;;;;;;;;;;;;;;;5074919;28;19928;-24
2022/09/16 10:08:01;;;;;;;;;;;;;;;;;;5075002;28;19909;-23
2022/09/16 10:10:27;;;;;;;;;;;;;;;;;;5075387;28;19916;-24
2022/09/16 10:12:53;;;;;;;;;;;;;;;;;;5074766;28;19974;-23
2022/09/16 10:15:19;;;;;;;;;;;;;;;;;;5074845;28;19916;-23
2022/09/16 10:17:45;;;;;;;;;;;;;;;;;;5056982;28;19947;-24
2022/09/16 10:20:12;;;;;;;;;;;;;;;;;;5074571;28;19912;-24
2022/09/16 10:22:38;;;;;;;;;;;;;;;;;;5074394;28;20244;-23
2022/09/16 10:25:06;;;;;;;;;;;;;;;;;;5074992;28;19923;-23
2022/09/16 10:27:35;;;;;;;;;;;;;;;;;;5074931;28;19965;-24
2022/09/16 10:30:01;;;;;;;;;;;;;;;;;;5074814;28;19913;-24
2022/09/16 10:32:27;;;;;;;;;;;;;;;;;;5074636;28;19922;-23
2022/09/16 10:34:53;;;;;;;;;;;;;;;;;;5074713;28;20334;-24
2022/09/16 10:37:19;;;;;;;;;;;;;;;;;;5074695;28;19913;-23
2022/09/16 10:39:45;;;;;;;;;;;;;;;;;;5074354;28;19977;-24
2022/09/16 10:42:11;;;;;;;;;;;;;;;;;;5074614;28;20012;-24
2022/09/16 10:44:38;;;;;;;;;;;;;;;;;;5074798;28;19913;-24
2022/09/16 10:47:07;;;;;;;;;;;;;;;;;;5074467;28;20365;-24
2022/09/16 10:49:34;;;;;;;;;;;;;;;;;;5076670;28;20331;-24
2022/09/16 10:52:02;;;;;;;;;;;;;;;;;;5059322;28;20243;-22
2022/09/16 10:54:35;;;;;;;;;;;;;;;;;;5076096;28;20283;-23
2022/09/16 10:57:03;;;;;;;;;;;;;;;;;;5077012;28;19923;-23
2022/09/16 10:59:37;;;;;;;;;;;;;;;;;;5058931;28;19908;-23
2022/09/16 11:02:04;;;;;;;;;;;;;;;;;;5076101;28;19916;-23
2022/09/16 11:04:37;;;;;;;;;;;;;;;;;;5075313;28;19966;-24
2022/09/16 11:07:06;;;;;;;;;;;;;;;;;;5075987;28;19921;-23
2022/09/16 11:23:40;;;;;;;;;;;;;;;;;;5300673;22;19932;-24
2022/09/16 11:26:37;;;;;;;;;;;;;;;;;;;;;
2022/09/16 11:29:08;;;;;;;;;;;;;;;;;;5057127;28;19913;-24
2022/09/16 11:31:42;;;;;;;;;;;;;;;;;;5056343;28;19999;-24
2022/09/16 11:34:12;;;;;;;;;;;;;;;;;;5055862;28;19908;-24
2022/09/16 11:39:26;;;;;;;;;;;;;;;;;;5058355;28;19924;-23
2022/09/16 11:41:59;;;;;;;;;;;;;;;;;;5038616;28;20244;-23
2022/09/16 11:44:28;;;;;;;;;;;;;;;;;;5056182;28;20350;-24
2022/09/16 11:47:06;;;;;;;;;;;;;;;;;;5038451;28;20042;-23
2022/09/16 11:49:33;;;;;;;;;;;;;;;;;;5056985;28;20054;-24
2022/09/16 11:52:01;;;;;;;;;;;;;;;;;;5039851;28;19913;-24
2022/09/16 11:54:40;;;;;;;;;;;;;;;;;;5056537;28;19908;-24
2022/09/16 11:57:08;;;;;;;;;;;;;;;;;;5038556;28;19913;-24
2022/09/16 11:59:40;;;;;;;;;;;;;;;;;;5054574;28;20025;-24
2022/09/16 12:02:09;;;;;;;;;;;;;;;;;;5056240;28;20251;-25
2022/09/16 12:04:40;;;;;;;;;;;;;;;;;;5056522;28;19909;-24
2022/09/16 12:07:12;;;;;;;;;;;;;;;;;;5038615;28;19923;-24
2022/09/16 12:12:37;;;;;;;;;;;;;;;;;;5056889;28;20306;-24
2022/09/16 12:15:07;;;;;;;;;;;;;;;;;;5038153;28;19913;-23
2022/09/16 12:17:35;;;;;;;;;;;;;;;;;;5055469;28;19939;-24
2022/09/16 12:20:08;;;;;;;;;;;;;;;;;;5038222;28;19913;-24
2022/09/16 12:25:46;;;;;;;;;;;;;;;;;;5075979;28;19977;-24
2022/09/16 12:28:20;;;;;;;;;;;;;;;;;;5076437;28;19912;-23
2022/09/16 12:30:48;;;;;;;;;;;;;;;;;;5060459;28;19912;-24
2022/09/16 12:33:18;;;;;;;;;;;;;;;;;;5062210;28;19912;-24
2022/09/16 12:35:48;;;;;;;;;;;;;;;;;;5079094;28;19913;-23
2022/09/16 12:38:15;;;;;;;;;;;;;;;;;;5061589;28;19908;-23
2022/09/16 12:40:49;;;;;;;;;;;;;;;;;;5079225;28;19923;-23
2022/09/16 12:43:16;;;;;;;;;;;;;;;;;;5078962;28;19908;-23
2022/09/16 12:45:43;;;;;;;;;;;;;;;;;;5078941;28;19974;-23
2022/09/16 12:48:11;;;;;;;;;;;;;;;;;;5079227;28;19908;-23
2022/09/16 12:50:54;;;;;;;;;;;;;;;;;;5078970;28;19912;-23
2022/09/16 12:53:29;;;;;;;;;;;;;;;;;;5076659;28;19913;-23
2022/09/16 12:55:56;;;;;;;;;;;;;;;;;;5079124;28;20057;-24
2022/09/16 12:58:30;;;;;;;;;;;;;;;;;;5079395;28;20236;-23
2022/09/16 13:00:56;;;;;;;;;;;;;;;;;;5080204;28;19922;-23
2022/09/16 13:03:28;;;;;;;;;;;;;;;;;;5079057;28;19908;-23
2022/09/16 13:05:57;;;;;;;;;;;;;;;;;;5062112;28;19958;-23
2022/09/16 13:08:25;;;;;;;;;;;;;;;;;;5062568;28;19909;-24
2022/09/16 13:10:58;;;;;;;;;;;;;;;;;;5079831;28;19912;-24
2022/09/16 13:16:16;;;;;;;;;;;;;;;;;;5079461;28;19923;-23
2022/09/16 13:18:46;;;;;;;;;;;;;;;;;;5078454;28;19919;-23
2022/09/16 13:21:13;;;;;;;;;;;;;;;;;;5080046;28;19916;-24
2022/09/16 13:23:42;;;;;;;;;;;;;;;;;;5078352;28;19939;-24
2022/09/16 13:26:09;;;;;;;;;;;;;;;;;;5079737;28;19935;-24
2022/09/16 13:28:37;;;;;;;;;;;;;;;;;;5078807;28;19923;-23
2022/09/16 13:31:05;;;;;;;;;;;;;;;;;;5079074;28;19916;-23
2022/09/16 13:33:32;;;;;;;;;;;;;;;;;;5061374;28;19913;-23
2022/09/16 13:36:01;;;;;;;;;;;;;;;;;;5060904;28;19923;-23
2022/09/16 13:38:29;;;;;;;;;;;;;;;;;;5078653;28;19922;-23
2022/09/16 13:40:58;;;;;;;;;;;;;;;;;;5077394;28;19912;-23
2022/09/16 13:43:24;;;;;;;;;;;;;;;;;;5078139;28;19924;-23
2022/09/16 13:48:35;;;;;;;;;;;;;;;;;;5075882;28;20263;-23
2022/09/16 13:51:01;;;;;;;;;;;;;;;;;;5075657;28;20011;-23
2022/09/16 13:53:27;;;;;;;;;;;;;;;;;;5075386;28;20005;-23
2022/09/16 13:55:53;;;;;;;;;;;;;;;;;;5075564;28;20041;-23
2022/09/16 13:58:19;;;;;;;;;;;;;;;;;;5075434;28;19965;-23
2022/09/16 14:00:45;;;;;;;;;;;;;;;;;;5075487;28;20314;-23
2022/09/16 14:03:11;;;;;;;;;;;;;;;;;;5075525;28;19920;-23
2022/09/16 14:05:37;;;;;;;;;;;;;;;;;;5075428;28;19917;-24
2022/09/16 14:08:03;;;;;;;;;;;;;;;;;;5075418;28;19947;-24
2022/09/16 14:10:29;;;;;;;;;;;;;;;;;;5074953;28;19924;-24
2022/09/16 14:12:55;;;;;;;;;;;;;;;;;;5057080;28;19912;-24
2022/09/16 14:15:22;;;;;;;;;;;;;;;;;;5075007;28;20007;-24
2022/09/16 14:17:48;;;;;;;;;;;;;;;;;;5075176;28;19924;-23
2022/09/16 14:20:15;;;;;;;;;;;;;;;;;;5075315;28;19913;-23
2022/09/16 14:22:43;;;;;;;;;;;;;;;;;;5074680;28;19940;-23
2022/09/16 14:25:09;;;;;;;;;;;;;;;;;;5057003;28;20350;-23
2022/09/16 14:27:38;;;;;;;;;;;;;;;;;;5075111;28;20281;-23
2022/09/16 14:30:04;;;;;;;;;;;;;;;;;;5074787;28;19996;-22
2022/09/16 14:32:30;;;;;;;;;;;;;;;;;;5074741;28;20339;-23
2022/09/16 14:34:56;;;;;;;;;;;;;;;;;;5074949;28;19995;-23
2022/09/16 14:37:22;;;;;;;;;;;;;;;;;;5074550;28;19913;-23
2022/09/16 14:39:48;;;;;;;;;;;;;;;;;;5074345;28;20365;-23
2022/09/16 14:42:14;;;;;;;;;;;;;;;;;;5074248;28;19970;-23
2022/09/16 14:44:40;;;;;;;;;;;;;;;;;;5074873;28;20323;-23
2022/09/16 14:47:06;;;;;;;;;;;;;;;;;;5075130;28;19982;-23
2022/09/16 14:49:32;;;;;;;;;;;;;;;;;;5074450;28;19908;-23
2022/09/16 14:52:00;;;;;;;;;;;;;;;;;;5073853;28;19913;-23
2022/09/16 14:54:26;;;;;;;;;;;;;;;;;;5073848;28;19944;-23
2022/09/16 14:56:52;;;;;;;;;;;;;;;;;;5074479;28;20359;-23
2022/09/16 14:59:18;;;;;;;;;;;;;;;;;;5074384;28;19920;-23
2022/09/16 15:01:44;;;;;;;;;;;;;;;;;;5074072;28;19912;-23
2022/09/16 15:04:10;;;;;;;;;;;;;;;;;;5056247;28;19913;-23
2022/09/16 15:06:36;;;;;;;;;;;;;;;;;;5074130;28;19916;-23
2022/09/16 15:09:03;;;;;;;;;;;;;;;;;;5074320;28;19920;-23
2022/09/16 15:11:29;;;;;;;;;;;;;;;;;;5074339;28;19912;-23
2022/09/16 15:13:55;;;;;;;;;;;;;;;;;;5074115;28;20269;-23
2022/09/16 15:16:22;;;;;;;;;;;;;;;;;;5056265;28;20396;-23
2022/09/16 15:18:49;;;;;;;;;;;;;;;;;;5076535;28;20003;-23
2022/09/16 15:21:16;;;;;;;;;;;;;;;;;;5076616;28;19989;-23
2022/09/16 15:23:43;;;;;;;;;;;;;;;;;;5057973;28;19943;-23
2022/09/16 15:26:11;;;;;;;;;;;;;;;;;;5058486;28;19916;-23
2022/09/16 15:28:38;;;;;;;;;;;;;;;;;;5075902;28;19923;-22
2022/09/16 15:31:06;;;;;;;;;;;;;;;;;;5075743;28;19913;-24
2022/09/16 15:33:33;;;;;;;;;;;;;;;;;;5058403;28;20394;-24
2022/09/16 15:42:04;;;;;;;;;;;;;;;;;;5034246;28;19993;-24
2022/09/16 15:47:23;;;;;;;;;;;;;;;;;;5081573;28;20303;-24
2022/09/16 15:49:50;;;;;;;;;;;;;;;;;;5058877;28;19912;-24
2022/09/16 15:52:17;;;;;;;;;;;;;;;;;;5058951;28;19999;-24
2022/09/16 15:54:46;;;;;;;;;;;;;;;;;;5058206;28;19951;-25
2022/09/16 15:57:14;;;;;;;;;;;;;;;;;;5075843;28;19940;-25
2022/09/16 15:59:46;;;;;;;;;;;;;;;;;;5075990;28;20031;-23
2022/09/16 16:02:14;;;;;;;;;;;;;;;;;;5075976;28;19947;-35
2022/09/16 16:04:44;;;;;;;;;;;;;;;;;;5059618;28;19913;-23
2022/09/16 16:07:11;;;;;;;;;;;;;;;;;;5079588;28;19977;-23
2022/09/16 16:09:39;;;;;;;;;;;;;;;;;;5080444;28;19916;-24
2022/09/16 16:12:09;;;;;;;;;;;;;;;;;;5080097;28;20345;-24
2022/09/16 16:14:37;;;;;;;;;;;;;;;;;;5079900;28;20021;-23
2022/09/16 16:17:05;;;;;;;;;;;;;;;;;;5062240;28;19912;-24
2022/09/16 16:19:32;;;;;;;;;;;;;;;;;;5080114;28;20011;-24
2022/09/16 16:22:00;;;;;;;;;;;;;;;;;;5079267;28;19920;-24
2022/09/16 16:24:28;;;;;;;;;;;;;;;;;;5061038;28;19920;-23
2022/09/16 16:26:54;;;;;;;;;;;;;;;;;;5078814;28;19920;-24
2022/09/16 16:29:21;;;;;;;;;;;;;;;;;;5079598;28;19908;-23
2022/09/16 16:31:49;;;;;;;;;;;;;;;;;;5079339;28;19980;-23
2022/09/16 16:34:16;;;;;;;;;;;;;;;;;;5079256;28;19961;-23
2022/09/16 16:36:44;;;;;;;;;;;;;;;;;;5079221;28;19920;-24
2022/09/16 16:39:11;;;;;;;;;;;;;;;;;;5079001;28;19999;-27
2022/09/16 16:41:38;;;;;;;;;;;;;;;;;;5079141;28;19966;-23
2022/09/16 16:44:05;;;;;;;;;;;;;;;;;;5079276;28;19920;-23
2022/09/16 16:46:39;;;;;;;;;;;;;;;;;;5079005;28;20004;-22
2022/09/16 16:49:07;;;;;;;;;;;;;;;;;;5079297;28;19909;-22
2022/09/16 16:51:36;;;;;;;;;;;;;;;;;;5062244;28;19917;-23
2022/09/16 16:54:03;;;;;;;;;;;;;;;;;;5079780;28;19921;-23
2022/09/16 16:56:30;;;;;;;;;;;;;;;;;;5078729;28;19999;-23
2022/09/16 16:58:59;;;;;;;;;;;;;;;;;;5078601;28;19909;-23
2022/09/16 17:01:31;;;;;;;;;;;;;;;;;;5079149;28;19924;-25
2022/09/16 17:04:03;;;;;;;;;;;;;;;;;;5060784;28;20311;-24
2022/09/16 17:06:30;;;;;;;;;;;;;;;;;;5078601;28;19928;-24
2022/09/16 17:08:57;;;;;;;;;;;;;;;;;;5079598;28;20311;-23
2022/09/16 17:11:25;;;;;;;;;;;;;;;;;;5061475;28;19962;-24
2022/09/16 17:13:52;;;;;;;;;;;;;;;;;;5079272;28;19919;-24
2022/09/16 17:16:19;;;;;;;;;;;;;;;;;;5078205;28;19913;-24
2022/09/16 17:18:46;;;;;;;;;;;;;;;;;;5079265;28;20254;-24
2022/09/16 17:21:13;;;;;;;;;;;;;;;;;;5078243;28;19942;-24
2022/09/16 17:23:40;;;;;;;;;;;;;;;;;;5078738;28;19924;-24
2022/09/16 17:26:09;;;;;;;;;;;;;;;;;;5061333;28;19920;-23
2022/09/16 17:28:40;;;;;;;;;;;;;;;;;;5079142;28;19989;-23
2022/09/16 17:31:07;;;;;;;;;;;;;;;;;;5079362;28;20025;-23
2022/09/16 17:33:34;;;;;;;;;;;;;;;;;;5078707;28;19916;-23
2022/09/16 17:36:03;;;;;;;;;;;;;;;;;;5077638;28;20300;-23
2022/09/16 17:38:31;;;;;;;;;;;;;;;;;;5078108;28;20213;-23
2022/09/16 17:40:59;;;;;;;;;;;;;;;;;;5078490;28;19927;-23
2022/09/16 17:43:30;;;;;;;;;;;;;;;;;;5077739;28;19999;-23
2022/09/16 17:46:28;;;;;;;;;;;;;;;;;;5077085;28;19926;-23
2022/09/16 17:48:57;;;;;;;;;;;;;;;;;;5077820;28;19974;-23
2022/09/16 17:51:32;;;;;;;;;;;;;;;;;;5079901;28;19935;-23
2022/09/16 17:56:44;;;;;;;;;;;;;;;;;;5078199;28;20346;-23
2022/09/16 17:59:11;;;;;;;;;;;;;;;;;;5078033;28;19916;-24
2022/09/16 18:01:38;;;;;;;;;;;;;;;;;;5077029;28;19908;-23
2022/09/16 18:04:13;;;;;;;;;;;;;;;;;;5077432;28;19912;-23
2022/09/16 18:15:13;;;;;;;;;;;;;;;;;;5076679;28;19923;-23
2022/09/16 18:17:41;;;;;;;;;;;;;;;;;;5077737;28;19942;-23
2022/09/16 18:20:08;;;;;;;;;;;;;;;;;;5077137;28;20001;-23
2022/09/16 18:22:37;;;;;;;;;;;;;;;;;;5058899;28;19916;-23
2022/09/16 18:25:03;;;;;;;;;;;;;;;;;;5058871;28;20330;-23
2022/09/16 18:27:31;;;;;;;;;;;;;;;;;;5077134;28;19919;-23
2022/09/16 18:29:58;;;;;;;;;;;;;;;;;;5076889;28;19924;-23
2022/09/16 18:32:25;;;;;;;;;;;;;;;;;;5077223;28;20266;-23
2022/09/16 18:34:52;;;;;;;;;;;;;;;;;;5059536;28;19996;-23
2022/09/16 18:37:19;;;;;;;;;;;;;;;;;;5076806;28;19908;-23
2022/09/16 18:39:49;;;;;;;;;;;;;;;;;;5059789;28;19913;-24